Time;durP1;ratioP1;P1;durP2;ratioP2;P2;SDS_P1;SDS_P2;PMS_P1;PMS_P2;Temp;Humidity;BMP_temperature;BMP_pressure;BME280_temperature;BME280_humidity;BME280_pressure;Samples;Min_cycle;Max_cycle;Signal;HPM_P1;HPM_P2
2022/06/27 00:01:30;;;;;;;9.30;6.88;;;16.30;99.90;;;;;;5094659;28;20039;-67
2022/06/27 00:04:01;;;;;;;9.00;8.10;;;16.30;99.90;;;;;;5094912;28;20180;-67
2022/06/27 00:06:27;;;;;;;11.00;7.75;;;16.30;99.90;;;;;;5097287;28;20110;-67
2022/06/27 00:08:53;;;;;;;11.02;7.38;;;16.30;99.90;;;;;;5108261;28;20441;-67
2022/06/27 00:11:24;;;;;;;15.50;8.17;;;16.30;99.90;;;;;;5097697;28;20036;-67
2022/06/27 00:13:51;;;;;;;9.57;7.85;;;16.30;99.90;;;;;;5080341;28;20032;-66
2022/06/27 00:16:17;;;;;;;11.63;8.02;;;16.30;99.90;;;;;;5097246;28;20070;-67
2022/06/27 00:18:44;;;;;;;10.23;8.05;;;16.30;99.90;;;;;;5080014;28;20039;-67
2022/06/27 00:21:12;;;;;;;8.60;7.10;;;16.20;99.90;;;;;;5096742;28;20055;-67
2022/06/27 00:23:39;;;;;;;10.68;7.80;;;16.20;99.90;;;;;;5080138;28;20130;-67
2022/06/27 00:26:05;;;;;;;10.88;8.70;;;16.20;99.90;;;;;;5079825;28;20043;-67
2022/06/27 00:28:37;;;;;;;10.43;8.68;;;16.20;99.90;;;;;;5080158;28;20100;-66
2022/06/27 00:31:15;;;;;;;9.05;7.25;;;16.10;99.90;;;;;;5080247;28;20091;-66
2022/06/27 00:33:43;;;;;;;9.65;8.45;;;16.10;99.90;;;;;;5078350;28;20633;-66
2022/06/27 00:36:10;;;;;;;14.57;8.45;;;16.00;99.90;;;;;;5096634;28;20036;-67
2022/06/27 00:38:41;;;;;;;9.52;7.35;;;16.10;99.90;;;;;;5109889;28;20130;-67
2022/06/27 00:41:10;;;;;;;12.48;8.40;;;16.00;99.90;;;;;;5079702;28;20081;-67
2022/06/27 00:43:36;;;;;;;10.57;9.25;;;16.00;99.90;;;;;;5091457;28;20078;-67
2022/06/27 00:46:03;;;;;;;11.35;8.40;;;16.00;99.90;;;;;;5096727;28;20059;-67
2022/06/27 00:48:30;;;;;;;12.05;8.70;;;16.00;99.90;;;;;;5077190;28;20457;-67
2022/06/27 00:51:00;;;;;;;11.50;8.18;;;16.00;99.90;;;;;;5096303;28;20063;-67
2022/06/27 00:53:32;;;;;;;10.75;7.45;;;16.00;99.90;;;;;;5079900;28;20380;-67
2022/06/27 00:55:59;;;;;;;12.50;9.00;;;15.90;99.90;;;;;;5089423;28;20051;-67
2022/06/27 00:58:25;;;;;;;10.00;7.90;;;15.90;99.90;;;;;;5095744;28;20094;-67
2022/06/27 01:00:52;;;;;;;9.25;8.07;;;15.90;99.90;;;;;;5114354;28;20031;-67
2022/06/27 01:03:18;;;;;;;12.68;8.60;;;15.90;99.90;;;;;;5107470;28;20035;-66
2022/06/27 01:05:56;;;;;;;9.27;8.27;;;15.90;99.90;;;;;;5109351;28;20043;-67
2022/06/27 01:08:25;;;;;;;11.80;8.35;;;15.90;99.90;;;;;;5075612;28;20035;-67
2022/06/27 01:11:00;;;;;;;9.63;8.27;;;15.90;99.90;;;;;;5060103;28;20411;-66
2022/06/27 01:13:26;;;;;;;11.68;8.35;;;16.00;99.90;;;;;;5075397;28;20040;-67
2022/06/27 01:15:55;;;;;;;8.25;7.40;;;16.00;99.90;;;;;;5091947;28;20094;-67
2022/06/27 01:18:21;;;;;;;8.75;7.60;;;16.00;99.90;;;;;;5093659;28;20093;-67
2022/06/27 01:20:47;;;;;;;9.80;8.30;;;16.00;99.90;;;;;;5087616;28;20043;-67
2022/06/27 01:23:13;;;;;;;12.82;8.82;;;16.00;99.90;;;;;;5093532;28;20036;-67
2022/06/27 01:25:39;;;;;;;11.75;9.07;;;16.00;99.90;;;;;;5075549;28;20035;-66
2022/06/27 01:28:07;;;;;;;12.95;9.02;;;16.00;99.90;;;;;;5075247;28;20454;-66
2022/06/27 01:30:33;;;;;;;11.07;8.15;;;16.00;99.90;;;;;;5092367;28;20426;-66
2022/06/27 01:33:00;;;;;;;13.73;8.82;;;16.00;99.90;;;;;;5091650;28;20429;-66
2022/06/27 01:35:25;;;;;;;10.80;8.55;;;16.00;99.90;;;;;;5075099;28;20039;-67
2022/06/27 01:37:51;;;;;;;9.32;7.88;;;16.00;99.90;;;;;;5075216;28;20058;-66
2022/06/27 01:40:17;;;;;;;10.18;8.80;;;16.00;99.90;;;;;;5075115;28;20079;-67
2022/06/27 01:42:43;;;;;;;11.32;7.75;;;16.00;99.90;;;;;;5075131;28;20073;-66
2022/06/27 01:45:10;;;;;;;10.30;8.02;;;16.00;99.90;;;;;;5075291;28;20082;-66
2022/06/27 01:47:36;;;;;;;9.68;8.38;;;16.00;99.90;;;;;;5093213;28;20060;-67
2022/06/27 01:50:03;;;;;;;11.40;9.18;;;16.00;99.90;;;;;;5075242;28;20040;-67
2022/06/27 01:52:30;;;;;;;10.02;7.70;;;16.00;99.90;;;;;;5109019;28;20032;-67
2022/06/27 01:54:56;;;;;;;10.52;8.02;;;16.10;99.90;;;;;;5093229;28;20505;-67
2022/06/27 01:57:23;;;;;;;11.20;8.75;;;16.00;99.90;;;;;;5092995;28;20086;-67
2022/06/27 01:59:52;;;;;;;12.35;8.02;;;16.00;99.90;;;;;;5074799;28;20104;-67
2022/06/27 02:02:19;;;;;;;12.40;9.75;;;16.00;99.90;;;;;;5092621;28;20047;-67
2022/06/27 02:04:46;;;;;;;10.32;8.63;;;16.00;99.90;;;;;;5073604;28;20036;-67
2022/06/27 02:07:12;;;;;;;11.50;10.30;;;16.10;99.90;;;;;;5103145;28;20551;-67
2022/06/27 02:09:38;;;;;;;14.73;10.45;;;16.10;99.90;;;;;;5078186;28;20036;-67
2022/06/27 02:12:20;;;;;;;14.02;9.90;;;16.10;99.90;;;;;;5113215;28;20123;-67
2022/06/27 02:14:48;;;;;;;14.45;10.18;;;16.10;99.90;;;;;;5094894;28;20560;-67
2022/06/27 02:17:15;;;;;;;11.65;9.23;;;16.10;99.90;;;;;;5113308;28;20042;-67
2022/06/27 02:19:41;;;;;;;15.60;10.75;;;16.10;99.90;;;;;;5094882;28;20052;-67
2022/06/27 02:22:07;;;;;;;13.85;9.73;;;16.10;99.90;;;;;;5095075;28;20501;-67
2022/06/27 02:24:33;;;;;;;15.93;10.82;;;16.10;99.90;;;;;;5094881;28;20063;-67
2022/06/27 02:27:00;;;;;;;13.45;11.05;;;16.10;99.90;;;;;;5094791;28;20101;-67
2022/06/27 02:29:26;;;;;;;13.02;10.77;;;16.10;99.90;;;;;;5078025;28;20047;-67
2022/06/27 02:31:51;;;;;;;13.25;10.18;;;16.10;99.90;;;;;;5113033;28;20040;-67
2022/06/27 02:34:18;;;;;;;11.02;9.60;;;16.10;99.90;;;;;;5110833;28;20078;-67
2022/06/27 02:36:46;;;;;;;14.68;9.35;;;16.10;99.90;;;;;;5094746;28;20044;-67
2022/06/27 02:39:18;;;;;;;13.20;9.52;;;16.10;99.90;;;;;;5112996;28;20035;-67
2022/06/27 02:41:45;;;;;;;11.35;10.15;;;16.10;99.90;;;;;;5112841;28;20075;-67
2022/06/27 02:44:13;;;;;;;11.38;9.27;;;16.10;99.90;;;;;;5094707;28;20047;-67
2022/06/27 02:46:40;;;;;;;12.48;9.63;;;16.10;99.90;;;;;;5094701;28;20053;-67
2022/06/27 02:49:07;;;;;;;13.90;9.98;;;16.10;99.90;;;;;;5112801;28;20059;-67
2022/06/27 02:51:43;;;;;;;14.32;11.13;;;16.10;99.90;;;;;;5077619;28;20487;-67
2022/06/27 02:54:48;;;;;;;14.77;11.50;;;16.10;99.90;;;;;;5113121;28;20039;-67
2022/06/27 02:57:56;;;;;;;15.25;11.52;;;16.00;99.90;;;;;;5061784;28;20054;-67
2022/06/27 03:00:26;;;;;;;15.07;11.98;;;16.00;99.90;;;;;;5081100;28;20130;-67
2022/06/27 03:02:52;;;;;;;;;;;15.90;99.90;;;;;;5093012;28;20035;-67
2022/06/27 03:05:18;;;;;;;16.02;11.77;;;15.90;99.90;;;;;;5094422;28;19915;-67
2022/06/27 03:07:45;;;;;;;14.82;11.20;;;15.80;99.90;;;;;;5112694;28;20096;-67
2022/06/27 03:10:12;;;;;;;13.63;10.65;;;15.80;99.90;;;;;;5094645;28;20414;-67
2022/06/27 03:12:39;;;;;;;14.68;11.57;;;15.80;99.90;;;;;;5077655;28;20067;-67
2022/06/27 03:15:05;;;;;;;14.82;11.23;;;15.80;99.90;;;;;;5094468;28;20040;-67
2022/06/27 03:17:31;;;;;;;13.90;11.68;;;15.80;99.90;;;;;;5112810;28;20044;-67
2022/06/27 03:19:57;;;;;;;14.75;11.07;;;15.70;99.90;;;;;;5115434;28;20384;-67
2022/06/27 03:22:23;;;;;;;16.83;11.82;;;15.70;99.90;;;;;;5098316;28;20039;-67
2022/06/27 03:24:49;;;;;;;22.55;12.55;;;15.80;99.90;;;;;;5097999;28;20372;-67
2022/06/27 03:27:14;;;;;;;17.63;11.38;;;15.80;99.90;;;;;;5080815;28;20113;-67
2022/06/27 03:29:42;;;;;;;14.73;11.07;;;15.80;99.90;;;;;;5116492;28;20043;-67
2022/06/27 03:32:08;;;;;;;14.32;10.95;;;15.80;99.90;;;;;;5081179;28;20048;-67
2022/06/27 03:34:34;;;;;;;15.85;9.82;;;15.80;99.90;;;;;;5095977;28;20414;-67
2022/06/27 03:37:00;;;;;;;13.38;11.63;;;15.80;99.90;;;;;;5116097;28;20104;-67
2022/06/27 03:39:26;;;;;;;13.52;11.40;;;15.80;99.90;;;;;;5098026;28;20044;-67
2022/06/27 03:41:52;;;;;;;15.25;11.88;;;15.80;99.90;;;;;;5115802;28;20404;-67
2022/06/27 03:44:18;;;;;;;14.98;12.75;;;15.90;99.90;;;;;;5097810;28;20035;-67
2022/06/27 03:46:44;;;;;;;16.67;13.38;;;15.90;99.90;;;;;;5097576;28;20082;-67
2022/06/27 03:51:56;;;;;;;14.25;12.70;;;15.90;99.90;;;;;;5093983;28;20534;-67
2022/06/27 03:54:22;;;;;;;15.52;13.65;;;15.90;99.90;;;;;;5095337;28;20516;-67
2022/06/27 03:56:50;;;;;;;16.73;12.85;;;16.00;99.90;;;;;;5094012;28;20118;-67
2022/06/27 03:59:16;;;;;;;13.55;12.15;;;16.00;99.90;;;;;;5093975;28;20048;-66
2022/06/27 04:01:42;;;;;;;18.17;13.65;;;16.00;99.90;;;;;;5093963;28;20043;-67
2022/06/27 04:04:08;;;;;;;19.10;13.07;;;16.00;99.90;;;;;;5091984;28;20040;-66
2022/06/27 04:06:33;;;;;;;15.77;13.90;;;16.00;99.90;;;;;;5094960;28;20694;-67
2022/06/27 04:08:59;;;;;;;19.40;13.82;;;16.00;99.90;;;;;;5095005;28;20107;-67
2022/06/27 04:11:25;;;;;;;14.13;12.60;;;16.10;99.90;;;;;;5093677;28;20384;-67
2022/06/27 04:13:51;;;;;;;13.57;11.27;;;16.10;99.90;;;;;;5077122;28;20036;-67
2022/06/27 04:16:17;;;;;;;14.23;12.65;;;16.10;99.90;;;;;;5094976;28;20040;-67
2022/06/27 04:18:43;;;;;;;15.23;13.52;;;16.10;99.90;;;;;;5093624;28;20039;-67
2022/06/27 04:21:09;;;;;;;20.27;13.63;;;16.10;99.90;;;;;;5094807;28;20046;-67
2022/06/27 04:23:34;;;;;;;16.83;12.85;;;16.10;99.90;;;;;;5093694;28;20075;-67
2022/06/27 04:26:00;;;;;;;15.27;12.98;;;16.10;99.90;;;;;;5076794;28;20047;-67
2022/06/27 04:28:26;;;;;;;14.23;11.90;;;16.20;99.90;;;;;;5094618;28;20471;-67
2022/06/27 04:30:52;;;;;;;14.85;12.73;;;16.20;99.90;;;;;;5092723;28;20040;-67
2022/06/27 04:33:19;;;;;;;16.63;13.60;;;16.20;99.90;;;;;;5074197;28;20040;-67
2022/06/27 04:35:46;;;;;;;13.90;12.55;;;16.20;99.90;;;;;;5076474;28;20047;-67
2022/06/27 04:38:17;;;;;;;18.20;13.48;;;16.30;99.90;;;;;;5094432;28;20044;-67
2022/06/27 04:40:43;;;;;;;15.23;12.60;;;16.40;99.90;;;;;;5093385;28;20130;-67
2022/06/27 04:43:09;;;;;;;13.75;12.40;;;16.40;99.90;;;;;;5076495;28;20393;-67
2022/06/27 04:45:36;;;;;;;13.95;12.45;;;16.40;99.90;;;;;;5076290;28;20071;-67
2022/06/27 04:48:03;;;;;;;13.27;11.82;;;16.40;99.90;;;;;;5096157;28;20396;-67
2022/06/27 04:50:29;;;;;;;14.55;11.65;;;16.50;99.90;;;;;;5096341;28;20101;-67
2022/06/27 04:52:55;;;;;;;13.05;11.65;;;16.50;99.90;;;;;;5096151;28;20047;-67
2022/06/27 04:55:21;;;;;;;15.77;12.18;;;16.60;99.90;;;;;;5096333;28;20543;-67
2022/06/27 04:57:48;;;;;;;14.23;10.40;;;16.60;99.90;;;;;;5096170;28;20484;-68
2022/06/27 05:00:15;;;;;;;15.20;11.23;;;16.60;99.90;;;;;;5096200;28;20092;-68
2022/06/27 05:02:42;;;;;;;16.10;11.77;;;16.60;99.90;;;;;;5112089;28;20047;-67
2022/06/27 05:05:08;;;;;;;11.18;9.75;;;16.60;99.90;;;;;;5114347;28;20137;-67
2022/06/27 05:07:34;;;;;;;15.32;12.13;;;16.60;99.90;;;;;;5095878;28;20032;-67
2022/06/27 05:10:00;;;;;;;13.43;12.02;;;16.60;99.90;;;;;;5096285;28;20491;-67
2022/06/27 05:12:27;;;;;;;13.32;11.73;;;16.60;99.90;;;;;;5095949;28;20035;-67
2022/06/27 05:14:54;;;;;;;15.57;11.98;;;16.70;99.90;;;;;;5096200;28;20372;-67
2022/06/27 05:17:21;;;;;;;13.23;11.93;;;16.70;99.90;;;;;;5114238;28;20050;-67
2022/06/27 05:19:47;;;;;;;17.67;10.52;;;16.70;99.90;;;;;;5095875;28;20108;-67
2022/06/27 05:22:13;;;;;;;15.13;11.18;;;16.80;99.90;;;;;;5114264;28;20122;-67
2022/06/27 05:24:39;;;;;;;14.98;10.68;;;16.80;99.90;;;;;;5096111;28;20046;-67
2022/06/27 05:27:05;;;;;;;14.45;12.00;;;16.90;99.90;;;;;;5095750;28;20040;-67
2022/06/27 05:29:32;;;;;;;13.77;11.75;;;16.90;99.90;;;;;;5095757;28;20606;-67
2022/06/27 05:31:59;;;;;;;13.32;10.93;;;17.00;99.90;;;;;;5113885;28;20035;-67
2022/06/27 05:34:25;;;;;;;16.52;11.90;;;17.10;99.90;;;;;;5111642;28;20415;-67
2022/06/27 05:36:51;;;;;;;13.50;11.75;;;17.10;99.90;;;;;;5113739;28;20039;-68
2022/06/27 05:39:17;;;;;;;13.20;11.10;;;17.20;99.90;;;;;;5113788;28;20043;-67
2022/06/27 05:41:45;;;;;;;12.77;11.23;;;17.20;99.90;;;;;;5095032;28;20043;-67
2022/06/27 05:44:14;;;;;;;12.80;10.55;;;17.30;99.90;;;;;;5095180;28;20032;-67
2022/06/27 05:46:41;;;;;;;12.13;10.07;;;17.40;99.90;;;;;;5078556;28;20055;-68
2022/06/27 05:49:11;;;;;;;15.98;11.18;;;17.50;99.90;;;;;;5113315;28;20135;-68
2022/06/27 05:51:38;;;;;;;11.75;10.52;;;17.60;99.90;;;;;;5078692;28;20036;-67
2022/06/27 05:54:05;;;;;;;12.93;10.75;;;17.60;99.90;;;;;;5078654;28;20175;-67
2022/06/27 05:56:32;;;;;;;14.43;11.27;;;17.60;99.90;;;;;;5095240;28;20047;-67
2022/06/27 05:58:58;;;;;;;16.15;11.90;;;17.60;99.90;;;;;;5113481;28;20122;-67
2022/06/27 06:01:27;;;;;;;17.73;11.32;;;17.70;99.90;;;;;;5078288;28;20055;-68
2022/06/27 06:03:53;;;;;;;13.48;11.75;;;17.70;99.90;;;;;;5111289;28;20043;-68
2022/06/27 06:06:19;;;;;;;13.55;10.77;;;17.70;99.90;;;;;;5094916;28;20441;-67
2022/06/27 06:08:45;;;;;;;15.15;11.60;;;17.60;99.90;;;;;;5095292;28;20040;-68
2022/06/27 06:11:14;;;;;;;12.40;9.60;;;17.60;99.90;;;;;;5095337;28;20373;-68
2022/06/27 06:13:41;;;;;;;13.68;10.52;;;17.50;99.90;;;;;;5094926;28;20091;-67
2022/06/27 06:16:10;;;;;;;11.73;10.52;;;17.50;99.90;;;;;;5094844;28;20047;-67
2022/06/27 06:18:37;;;;;;;13.48;10.30;;;17.50;99.90;;;;;;5094929;28;20036;-68
2022/06/27 06:21:05;;;;;;;12.43;10.88;;;17.50;99.90;;;;;;5094927;28;20043;-68
2022/06/27 06:23:36;;;;;;;13.25;11.05;;;17.50;99.90;;;;;;5113255;28;20062;-67
2022/06/27 06:26:02;;;;;;;12.90;10.98;;;17.50;99.90;;;;;;5078385;28;20410;-68
2022/06/27 06:28:32;;;;;;;12.18;10.63;;;17.50;99.90;;;;;;5095173;28;20051;-69
2022/06/27 06:30:57;;;;;;;12.63;9.77;;;17.50;99.90;;;;;;5078037;28;20046;-67
2022/06/27 06:33:25;;;;;;;15.32;9.85;;;17.50;99.90;;;;;;5075608;28;20039;-68
2022/06/27 06:35:52;;;;;;;11.50;9.65;;;17.40;99.90;;;;;;5113264;28;20039;-69
2022/06/27 06:38:18;;;;;;;10.77;9.68;;;17.40;99.90;;;;;;5094842;28;20118;-69
2022/06/27 06:40:44;;;;;;;13.15;10.13;;;17.40;99.90;;;;;;5094900;28;20075;-69
2022/06/27 06:43:10;;;;;;;11.15;9.10;;;17.40;99.90;;;;;;5094697;28;20140;-70
2022/06/27 06:45:36;;;;;;;11.18;8.10;;;17.40;99.90;;;;;;5095012;28;20050;-69
2022/06/27 06:48:02;;;;;;;9.68;8.30;;;17.40;99.90;;;;;;5094500;28;20547;-70
2022/06/27 06:50:28;;;;;;;9.23;7.97;;;17.40;99.90;;;;;;5113156;28;20122;-68
2022/06/27 06:52:54;;;;;;;10.55;8.60;;;17.40;99.90;;;;;;5113105;28;20122;-68
2022/06/27 06:55:24;;;;;;;10.95;9.50;;;17.40;99.90;;;;;;5098184;28;20031;-67
2022/06/27 06:57:50;;;;;;;10.27;8.82;;;17.40;99.90;;;;;;5116867;28;20035;-70
2022/06/27 07:00:18;;;;;;;11.02;9.70;;;17.50;99.90;;;;;;5098548;28;20040;-70
2022/06/27 07:02:45;;;;;;;10.07;8.85;;;17.50;99.90;;;;;;5096414;28;20075;-71
2022/06/27 07:05:12;;;;;;;10.52;8.25;;;17.50;99.90;;;;;;5114090;28;20035;-69
2022/06/27 07:07:41;;;;;;;9.93;8.07;;;17.50;99.90;;;;;;5116521;28;20046;-69
2022/06/27 07:10:10;;;;;;;10.05;7.85;;;17.50;99.90;;;;;;5116406;28;20047;-69
2022/06/27 07:12:36;;;;;;;9.13;8.20;;;17.40;99.90;;;;;;5096155;28;20042;-67
2022/06/27 07:15:05;;;;;;;11.10;8.13;;;17.40;99.90;;;;;;5116604;28;20050;-69
2022/06/27 07:17:40;;;;;;;11.77;9.13;;;17.40;99.90;;;;;;5116337;28;20105;-68
2022/06/27 07:20:06;;;;;;;11.32;8.95;;;17.50;99.90;;;;;;5097904;28;20035;-69
2022/06/27 07:22:34;;;;;;;8.30;7.50;;;17.50;99.90;;;;;;5098327;28;20047;-68
2022/06/27 07:25:00;;;;;;;12.77;8.70;;;17.50;99.90;;;;;;5098072;28;20376;-68
2022/06/27 07:27:26;;;;;;;8.85;6.50;;;17.50;99.90;;;;;;5098201;28;20040;-69
2022/06/27 07:29:52;;;;;;;7.00;5.85;;;17.50;99.90;;;;;;5098126;28;20043;-69
2022/06/27 07:32:18;;;;;;;8.05;6.93;;;17.40;99.90;;;;;;5116243;28;20572;-69
2022/06/27 07:34:44;;;;;;;8.05;6.57;;;17.40;99.90;;;;;;5095731;28;20074;-69
2022/06/27 07:37:10;;;;;;;7.72;6.93;;;17.40;99.90;;;;;;5097947;28;20044;-69
2022/06/27 07:39:36;;;;;;;9.43;6.50;;;17.40;99.90;;;;;;5115994;28;20047;-66
2022/06/27 07:42:03;;;;;;;9.05;6.80;;;17.40;99.90;;;;;;5097772;28;20047;-69
2022/06/27 07:44:29;;;;;;;8.95;6.68;;;17.40;99.90;;;;;;5080805;28;20047;-68
2022/06/27 07:46:56;;;;;;;8.43;6.65;;;17.50;99.90;;;;;;5097826;28;20055;-68
2022/06/27 07:49:22;;;;;;;7.28;6.15;;;17.50;99.90;;;;;;5115610;28;20419;-68
2022/06/27 07:51:47;;;;;;;8.73;6.18;;;17.50;99.90;;;;;;5081015;28;20046;-68
2022/06/27 07:54:14;;;;;;;9.27;6.47;;;17.60;99.90;;;;;;5115755;28;20523;-67
2022/06/27 07:56:41;;;;;;;9.20;7.00;;;17.70;99.90;;;;;;5116133;28;20399;-67
2022/06/27 07:59:07;;;;;;;7.45;5.95;;;17.70;99.90;;;;;;5115714;28;20051;-67
2022/06/27 08:01:33;;;;;;;10.95;6.97;;;17.70;99.90;;;;;;5097735;28;20109;-69
2022/06/27 08:03:59;;;;;;;8.15;7.20;;;17.80;99.90;;;;;;5095531;28;20043;-67
2022/06/27 08:06:28;;;;;;;8.00;6.97;;;17.80;99.90;;;;;;5114369;28;20391;-67
2022/06/27 08:09:00;;;;;;;8.38;6.97;;;17.90;99.90;;;;;;5080265;28;20039;-67
2022/06/27 08:11:28;;;;;;;8.80;6.25;;;18.00;99.90;;;;;;5115406;28;20502;-67
2022/06/27 08:14:03;;;;;;;8.30;6.65;;;18.00;99.90;;;;;;5115486;28;20039;-67
2022/06/27 08:16:32;;;;;;;6.82;5.95;;;18.00;99.90;;;;;;5115444;28;20039;-67
2022/06/27 08:18:58;;;;;;;7.15;5.63;;;18.00;99.90;;;;;;5097065;28;20043;-67
2022/06/27 08:21:25;;;;;;;9.70;6.55;;;18.00;99.90;;;;;;5115235;28;20048;-68
2022/06/27 08:23:53;;;;;;;6.50;5.70;;;18.00;99.90;;;;;;5115457;28;20035;-67
2022/06/27 08:26:21;;;;;;;7.57;5.25;;;18.00;99.90;;;;;;5096887;28;20047;-67
2022/06/27 08:28:47;;;;;;;5.78;5.18;;;18.00;99.90;;;;;;5096879;28;20039;-67
2022/06/27 08:31:14;;;;;;;5.47;4.55;;;18.00;99.90;;;;;;5115179;28;20472;-67
2022/06/27 08:33:43;;;;;;;6.20;5.40;;;18.00;99.90;;;;;;5113001;28;20035;-67
2022/06/27 08:36:10;;;;;;;7.15;5.53;;;18.00;99.90;;;;;;5097068;28;20032;-67
2022/06/27 08:38:50;;;;;;;7.50;5.68;;;18.00;99.90;;;;;;5096993;28;20372;-67
2022/06/27 08:41:21;;;;;;;8.02;5.47;;;18.10;99.90;;;;;;5115168;28;20036;-67
2022/06/27 08:43:53;;;;;;;6.40;4.97;;;18.10;99.90;;;;;;5114907;28;20188;-67
2022/06/27 08:46:20;;;;;;;5.88;5.22;;;18.20;99.90;;;;;;5079747;28;20078;-66
2022/06/27 08:48:47;;;;;;;5.82;4.60;;;18.30;99.90;;;;;;5114723;28;20047;-67
2022/06/27 08:51:14;;;;;;;6.82;4.55;;;18.40;99.90;;;;;;5096302;28;20480;-67
2022/06/27 08:53:41;;;;;;;5.82;4.50;;;18.50;99.90;;;;;;5114822;28;20063;-67
2022/06/27 08:56:10;;;;;;;4.15;3.45;;;18.60;99.90;;;;;;5095953;28;20046;-66
2022/06/27 08:58:39;;;;;;;4.95;3.60;;;18.60;99.90;;;;;;5096147;28;20127;-67
2022/06/27 09:01:06;;;;;;;5.63;3.85;;;18.80;99.90;;;;;;5096264;28;20036;-68
2022/06/27 09:03:32;;;;;;;6.60;3.60;;;18.80;99.90;;;;;;5094008;28;20036;-67
2022/06/27 09:06:01;;;;;;;4.47;4.07;;;18.90;99.90;;;;;;5096034;28;20038;-66
2022/06/27 09:08:31;;;;;;;5.95;4.30;;;19.10;99.90;;;;;;5079133;28;20532;-68
2022/06/27 09:10:58;;;;;;;6.72;5.10;;;19.40;99.90;;;;;;5096096;28;20557;-68
2022/06/27 09:13:26;;;;;;;7.85;5.80;;;19.60;99.90;;;;;;5096105;28;20446;-67
2022/06/27 09:16:03;;;;;;;6.63;4.95;;;19.80;99.90;;;;;;5096020;28;20038;-67
2022/06/27 09:18:34;;;;;;;7.90;6.55;;;19.90;99.90;;;;;;5112700;28;20031;-67
2022/06/27 09:21:09;;;;;;;8.32;6.00;;;20.00;99.90;;;;;;5114024;28;20039;-68
2022/06/27 09:23:43;;;;;;;6.63;5.35;;;20.10;99.90;;;;;;5113985;28;20036;-68
2022/06/27 09:26:22;;;;;;;8.02;5.65;;;20.30;99.90;;;;;;5095882;28;20066;-68
2022/06/27 09:29:01;;;;;;;8.30;6.47;;;20.50;99.90;;;;;;5096007;28;20047;-67
2022/06/27 09:31:27;;;;;;;10.40;7.00;;;20.60;99.90;;;;;;5095628;28;20076;-67
2022/06/27 09:34:16;;;;;;;8.77;6.90;;;20.60;99.90;;;;;;5093458;28;20601;-67
2022/06/27 09:36:50;;;;;;;8.50;6.40;;;20.50;99.90;;;;;;5095593;28;20518;-68
2022/06/27 09:39:37;;;;;;;8.45;6.38;;;20.50;99.90;;;;;;5095896;28;20096;-69
2022/06/27 09:42:06;;;;;;;7.15;6.45;;;20.40;99.90;;;;;;5113802;28;20079;-70
2022/06/27 09:44:42;;;;;;;;;;;20.30;99.90;;;;;;5114237;28;20150;-67
2022/06/27 09:47:15;;;;;;;8.32;6.43;;;20.30;99.90;;;;;;5113526;28;20426;-68
2022/06/27 09:49:43;;;;;;;8.55;6.45;;;20.30;99.90;;;;;;5095696;28;20150;-68
2022/06/27 09:52:11;;;;;;;7.75;6.80;;;20.30;99.90;;;;;;5075475;28;20040;-69
2022/06/27 09:54:40;;;;;;;8.57;6.78;;;20.20;99.90;;;;;;5093350;28;20032;-69
2022/06/27 09:57:08;;;;;;;10.00;5.90;;;20.30;99.90;;;;;;5075141;28;20082;-69
2022/06/27 09:59:34;;;;;;;8.05;6.25;;;20.40;99.90;;;;;;5093091;28;20282;-69
2022/06/27 10:02:01;;;;;;;8.20;5.60;;;20.40;99.90;;;;;;5109078;28;20074;-69
2022/06/27 10:04:29;;;;;;;9.32;6.20;;;20.30;99.90;;;;;;5072837;28;20047;-69
2022/06/27 10:07:00;;;;;;;6.53;5.38;;;20.30;99.90;;;;;;5119417;27;20039;-68
2022/06/27 10:09:29;;;;;;;8.00;5.15;;;20.20;99.90;;;;;;5095430;28;20043;-68
2022/06/27 10:12:23;;;;;;;6.10;4.60;;;20.10;99.90;;;;;;5078149;28;20041;-68
2022/06/27 10:15:10;;;;;;;7.45;4.63;;;20.10;99.90;;;;;;5095376;28;20080;-69
2022/06/27 10:17:44;;;;;;;8.45;5.57;;;20.00;99.90;;;;;;5078443;28;20175;-68
2022/06/27 10:20:27;;;;;;;7.15;4.13;;;20.00;99.90;;;;;;5112947;28;20123;-68
2022/06/27 10:23:11;;;;;;;7.00;4.22;;;20.00;99.90;;;;;;5095041;28;20080;-69
2022/06/27 10:25:39;;;;;;;7.35;3.90;;;20.00;99.90;;;;;;5113152;28;20617;-69
2022/06/27 10:28:11;;;;;;;7.70;4.63;;;20.00;99.90;;;;;;5094905;28;20048;-68
2022/06/27 10:30:43;;;;;;;7.53;4.22;;;20.10;99.90;;;;;;5099061;28;20073;-69
2022/06/27 10:33:18;;;;;;;7.40;4.95;;;20.10;99.90;;;;;;5114990;28;20039;-69
2022/06/27 10:38:30;;;;;;;5.75;4.28;;;20.00;99.90;;;;;;5099309;28;20079;-68
2022/06/27 10:40:57;;;;;;;6.28;4.60;;;20.00;99.90;;;;;;5098822;28;20150;-68
2022/06/27 10:43:35;;;;;;;6.18;4.38;;;20.10;99.90;;;;;;5098901;28;20499;-68
2022/06/27 10:46:22;;;;;;;5.18;4.18;;;20.00;99.90;;;;;;5082185;28;20047;-67
2022/06/27 10:48:50;;;;;;;8.88;4.50;;;20.00;99.90;;;;;;5081348;28;20081;-67
2022/06/27 10:51:24;;;;;;;6.10;4.25;;;20.00;99.90;;;;;;5116954;28;20047;-67
2022/06/27 10:53:52;;;;;;;8.40;4.47;;;20.00;99.90;;;;;;5098859;28;20046;-68
2022/06/27 10:56:36;;;;;;;6.15;4.55;;;20.00;99.90;;;;;;5081692;28;20044;-68
2022/06/27 10:59:27;;;;;;;6.32;4.10;;;20.00;99.90;;;;;;5116931;28;20044;-68
2022/06/27 11:02:00;;;;;;;8.77;4.45;;;20.00;99.90;;;;;;5116542;28;20673;-68
2022/06/27 11:04:37;;;;;;;5.10;3.92;;;20.10;99.90;;;;;;5114867;28;20048;-68
2022/06/27 11:07:08;;;;;;;8.13;4.25;;;20.10;99.90;;;;;;5116517;28;20542;-69
2022/06/27 11:09:37;;;;;;;5.65;3.90;;;20.10;99.90;;;;;;5098592;28;20038;-68
2022/06/27 11:12:05;;;;;;;8.48;4.45;;;20.10;99.90;;;;;;5116605;28;20088;-69
2022/06/27 11:14:47;;;;;;;7.82;3.65;;;20.10;99.90;;;;;;5094660;28;20510;-68
2022/06/27 11:17:38;;;;;;;7.07;4.20;;;20.10;99.90;;;;;;5098281;28;20130;-68
2022/06/27 11:20:23;;;;;;;9.10;5.15;;;20.10;99.90;;;;;;5097629;28;20464;-68
2022/06/27 11:22:58;;;;;;;8.38;3.92;;;20.20;99.90;;;;;;5097227;28;20048;-68
2022/06/27 11:25:29;;;;;;;6.22;4.13;;;20.20;99.90;;;;;;5080507;28;20071;-68
2022/06/27 11:33:35;;;;;;;7.82;4.93;;;20.50;99.90;;;;;;5113519;28;20035;-69
2022/06/27 11:36:03;;;;;;;9.93;5.07;;;20.70;99.90;;;;;;5097259;28;20128;-68
2022/06/27 11:38:48;;;;;;;11.43;5.75;;;20.90;99.90;;;;;;5078941;28;20035;-70
2022/06/27 11:41:17;;;;;;;10.70;5.68;;;21.20;99.90;;;;;;5096996;28;20035;-68
2022/06/27 11:44:02;;;;;;;8.02;5.75;;;21.40;99.90;;;;;;5097229;28;20038;-69
2022/06/27 11:46:31;;;;;;;7.32;5.68;;;21.50;99.90;;;;;;5115240;28;20035;-68
2022/06/27 11:48:58;;;;;;;8.87;6.37;;;21.50;99.90;;;;;;5096868;28;20059;-68
2022/06/27 11:51:31;;;;;;;10.10;7.07;;;21.50;99.90;;;;;;5096735;28;20353;-68
2022/06/27 11:54:04;;;;;;;8.50;5.80;;;21.40;99.90;;;;;;5097048;28;20387;-68
2022/06/27 11:56:32;;;;;;;7.13;4.00;;;21.40;99.90;;;;;;5094999;28;20031;-67
2022/06/27 11:59:00;;;;;;;7.85;3.78;;;21.40;99.90;;;;;;5080237;28;20035;-69
2022/06/27 12:01:26;;;;;;;8.55;4.38;;;21.40;99.90;;;;;;5096906;28;20051;-69
2022/06/27 12:04:14;;;;;;;9.55;4.90;;;21.30;99.90;;;;;;5094465;28;20039;-69
2022/06/27 12:07:06;;;;;;;6.95;4.13;;;21.30;99.90;;;;;;5096172;28;20039;-68
2022/06/27 12:09:48;;;;;;;7.15;4.15;;;21.40;99.90;;;;;;5096460;28;20046;-68
2022/06/27 12:12:20;;;;;;;7.10;4.50;;;21.50;99.90;;;;;;5130200;27;20502;-68
2022/06/27 12:14:48;;;;;;;7.15;4.97;;;21.50;99.90;;;;;;5096486;28;20036;-68
2022/06/27 12:17:20;;;;;;;6.78;5.10;;;21.60;99.90;;;;;;5112805;28;20050;-68
2022/06/27 12:19:46;;;;;;;8.25;6.20;;;21.60;99.90;;;;;;5114687;28;20032;-68
2022/06/27 12:22:18;;;;;;;6.78;6.07;;;21.60;99.90;;;;;;5079703;28;20044;-68
2022/06/27 12:24:47;;;;;;;8.10;4.15;;;21.60;99.90;;;;;;5096596;28;20118;-68
2022/06/27 12:27:13;;;;;;;8.90;4.55;;;21.50;99.90;;;;;;5114382;28;20058;-68
2022/06/27 12:29:38;;;;;;;5.63;4.07;;;21.40;99.90;;;;;;5096293;28;20039;-68
2022/06/27 12:32:04;;;;;;;7.70;4.18;;;21.30;99.90;;;;;;5096100;28;20123;-69
2022/06/27 12:34:31;;;;;;;6.60;3.20;;;21.10;99.90;;;;;;5094188;28;20035;-69
2022/06/27 12:36:57;;;;;;;9.07;3.92;;;20.90;99.90;;;;;;5114495;28;20067;-69
2022/06/27 12:39:28;;;;;;;8.45;4.70;;;20.90;99.90;;;;;;5114434;28;20039;-69
2022/06/27 12:41:54;;;;;;;7.45;4.00;;;20.90;99.90;;;;;;5114150;28;20111;-68
2022/06/27 12:44:20;;;;;;;7.18;3.88;;;21.00;99.90;;;;;;5114052;28;20468;-69
2022/06/27 12:46:46;;;;;;;5.82;4.25;;;21.00;99.90;;;;;;5114219;28;20092;-69
2022/06/27 12:49:12;;;;;;;7.38;4.68;;;21.00;99.90;;;;;;5077855;28;20054;-68
2022/06/27 12:51:39;;;;;;;8.82;4.45;;;21.00;99.90;;;;;;5074887;28;20052;-69
2022/06/27 12:54:05;;;;;;;10.05;5.45;;;20.90;99.90;;;;;;5091733;28;20488;-68
2022/06/27 12:56:31;;;;;;;7.65;4.50;;;20.80;99.90;;;;;;5075529;28;20082;-69
2022/06/27 12:58:57;;;;;;;9.75;3.97;;;20.80;99.90;;;;;;5075144;28;20747;-69